Time;durP1;ratioP1;P1;durP2;ratioP2;P2;SDS_P1;SDS_P2;PMS_P1;PMS_P2;Temp;Humidity;BMP_temperature;BMP_pressure;BME280_temperature;BME280_humidity;BME280_pressure;Samples;Min_cycle;Max_cycle;Signal;HPM_P1;HPM_P2
2021/12/27 00:00:56;;;;;;;33.33;22.63;;;10.30;99.90;;;;;;5032729;28;20116;-76
2021/12/27 00:03:22;;;;;;;30.35;22.73;;;10.10;99.90;;;;;;5025443;28;20051;-75
2021/12/27 00:05:48;;;;;;;28.63;22.95;;;10.20;99.90;;;;;;5034201;28;20026;-75
2021/12/27 00:08:14;;;;;;;26.67;20.98;;;10.20;99.90;;;;;;5034282;28;20053;-76
2021/12/27 00:10:40;;;;;;;26.55;20.23;;;10.10;99.90;;;;;;5030278;28;20068;-76
2021/12/27 00:13:07;;;;;;;25.05;18.25;;;10.10;99.90;;;;;;5033713;28;20030;-76
2021/12/27 00:15:33;;;;;;;24.30;17.75;;;10.00;99.90;;;;;;5036070;28;20484;-76
2021/12/27 00:17:59;;;;;;;24.40;20.10;;;10.10;99.90;;;;;;5037960;28;20104;-75
2021/12/27 00:20:25;;;;;;;25.50;19.55;;;10.00;99.90;;;;;;5040598;28;20076;-75
2021/12/27 00:22:51;;;;;;;30.67;21.38;;;10.00;99.90;;;;;;5036826;28;20044;-76
2021/12/27 00:25:19;;;;;;;26.25;21.85;;;10.00;99.90;;;;;;5031939;28;20415;-75
2021/12/27 00:27:45;;;;;;;28.83;21.65;;;9.90;99.90;;;;;;5034486;28;20037;-75
2021/12/27 00:30:13;;;;;;;32.40;21.23;;;9.90;99.90;;;;;;5037583;28;20108;-76
2021/12/27 00:32:43;;;;;;;27.90;20.80;;;9.90;99.90;;;;;;5039440;28;20519;-75
2021/12/27 00:35:10;;;;;;;28.27;20.98;;;9.80;99.90;;;;;;5039005;28;20017;-75
2021/12/27 00:37:36;;;;;;;27.35;19.58;;;9.80;99.90;;;;;;5028775;28;20391;-75
2021/12/27 00:40:03;;;;;;;26.98;18.80;;;9.70;99.90;;;;;;5017483;28;20026;-75
2021/12/27 00:42:28;;;;;;;26.02;21.08;;;9.70;99.90;;;;;;5020949;28;20017;-76
2021/12/27 00:44:54;;;;;;;27.65;21.95;;;9.60;99.90;;;;;;5037267;28;20028;-76
2021/12/27 00:47:20;;;;;;;31.60;21.98;;;9.40;99.90;;;;;;5040430;28;20112;-75
2021/12/27 00:49:45;;;;;;;27.65;20.33;;;9.30;99.90;;;;;;5034494;28;20032;-75
2021/12/27 00:52:11;;;;;;;30.58;22.67;;;9.40;99.90;;;;;;5031728;28;20036;-75
2021/12/27 00:54:37;;;;;;;28.98;22.67;;;9.50;99.90;;;;;;5035475;28;20029;-75
2021/12/27 00:57:03;;;;;;;31.00;22.10;;;9.40;99.90;;;;;;5036963;28;20558;-75
2021/12/27 00:59:29;;;;;;;26.83;21.15;;;9.50;99.90;;;;;;5039282;28;20075;-75
2021/12/27 01:01:56;;;;;;;30.92;22.35;;;9.70;99.90;;;;;;5036403;28;20021;-75
2021/12/27 01:04:22;;;;;;;29.67;21.83;;;9.90;99.90;;;;;;5031499;28;20471;-76
2021/12/27 01:06:48;;;;;;;30.70;22.33;;;9.90;99.90;;;;;;5034325;28;20037;-76
2021/12/27 01:09:22;;;;;;;30.50;22.05;;;9.90;99.90;;;;;;5037110;28;20026;-75
2021/12/27 01:14:38;;;;;;;29.73;22.25;;;10.00;99.90;;;;;;5035215;28;20045;-75
2021/12/27 01:17:05;;;;;;;28.52;21.35;;;10.00;99.90;;;;;;5029607;28;20044;-75
2021/12/27 01:19:30;;;;;;;31.27;20.67;;;10.00;99.90;;;;;;5030109;28;20027;-75
2021/12/27 01:21:56;;;;;;;27.35;21.00;;;10.00;99.90;;;;;;5030168;28;20104;-75
2021/12/27 01:24:22;;;;;;;29.60;21.80;;;10.00;99.90;;;;;;5030287;28;20049;-75
2021/12/27 01:26:48;;;;;;;29.23;21.33;;;9.90;99.90;;;;;;5031609;28;20030;-75
2021/12/27 01:29:14;;;;;;;27.42;21.17;;;9.90;99.90;;;;;;5030823;28;20022;-76
2021/12/27 01:31:39;;;;;;;26.42;20.75;;;9.80;99.90;;;;;;5029379;28;20032;-76
2021/12/27 01:34:05;;;;;;;26.90;20.98;;;9.80;99.90;;;;;;5029751;28;20087;-75
2021/12/27 01:36:32;;;;;;;27.02;21.40;;;9.70;99.90;;;;;;5014105;28;20105;-75
2021/12/27 01:39:02;;;;;;;24.50;20.40;;;9.70;99.90;;;;;;5029791;28;20041;-76
2021/12/27 01:41:28;;;;;;;27.23;20.83;;;9.60;99.90;;;;;;5032836;28;20509;-75
2021/12/27 01:43:54;;;;;;;26.98;20.25;;;9.60;99.90;;;;;;5028469;28;20036;-75
2021/12/27 01:46:23;;;;;;;26.73;20.10;;;9.50;99.90;;;;;;5029598;28;20136;-76
2021/12/27 01:48:55;;;;;;;28.50;21.35;;;9.60;99.90;;;;;;5029885;28;20051;-75
2021/12/27 01:51:26;;;;;;;27.83;22.02;;;9.50;99.90;;;;;;5029036;28;20021;-75
2021/12/27 01:53:53;;;;;;;28.98;22.30;;;9.60;99.90;;;;;;5028296;28;20061;-75
2021/12/27 01:56:20;;;;;;;28.30;21.92;;;9.50;99.90;;;;;;5039185;28;20027;-75
2021/12/27 01:58:48;;;;;;;28.90;21.50;;;9.60;99.90;;;;;;5032377;28;20045;-76
2021/12/27 02:01:13;;;;;;;33.13;22.75;;;9.50;99.90;;;;;;5031141;28;20025;-75
2021/12/27 02:03:43;;;;;;;31.02;22.88;;;9.50;99.90;;;;;;5013216;28;20040;-75
2021/12/27 02:06:11;;;;;;;29.67;23.50;;;9.40;99.90;;;;;;5027457;28;20030;-76
2021/12/27 02:08:39;;;;;;;32.60;22.60;;;9.40;99.90;;;;;;5021960;28;20507;-76
2021/12/27 02:11:06;;;;;;;31.77;22.48;;;9.30;99.90;;;;;;5030780;28;20067;-75
2021/12/27 02:13:33;;;;;;;28.55;22.10;;;9.30;99.90;;;;;;5029039;28;20042;-75
2021/12/27 02:15:59;;;;;;;33.47;23.77;;;9.30;99.90;;;;;;5029294;28;20412;-75
2021/12/27 02:18:25;;;;;;;35.10;26.33;;;9.40;99.90;;;;;;5029145;28;20026;-75
2021/12/27 02:20:50;;;;;;;37.50;27.38;;;9.50;99.90;;;;;;5028180;28;20053;-75
2021/12/27 02:23:17;;;;;;;38.42;26.98;;;9.50;99.90;;;;;;5031969;28;20025;-76
2021/12/27 02:25:46;;;;;;;41.92;28.60;;;9.40;99.90;;;;;;5007759;28;20030;-75
2021/12/27 02:28:13;;;;;;;37.67;27.50;;;9.50;99.90;;;;;;5029147;28;20044;-75
2021/12/27 02:30:41;;;;;;;39.22;28.88;;;9.40;99.90;;;;;;5025631;28;20408;-75
2021/12/27 02:33:08;;;;;;;42.22;28.83;;;9.50;99.90;;;;;;5026377;28;20558;-75
2021/12/27 02:35:37;;;;;;;42.17;29.17;;;9.40;99.90;;;;;;5034273;28;20048;-75
2021/12/27 02:38:05;;;;;;;40.15;28.00;;;9.40;99.90;;;;;;5033514;28;20029;-75
2021/12/27 02:40:32;;;;;;;38.58;26.52;;;9.40;99.90;;;;;;5031956;28;20468;-75
2021/12/27 02:43:06;;;;;;;39.38;28.00;;;9.40;99.90;;;;;;5032542;28;20033;-75
2021/12/27 02:45:37;;;;;;;41.00;27.17;;;9.40;99.90;;;;;;5032169;28;20162;-75
2021/12/27 02:48:04;;;;;;;37.88;27.08;;;9.40;99.90;;;;;;5031124;28;20036;-75
2021/12/27 02:50:31;;;;;;;35.22;26.55;;;9.30;99.90;;;;;;5034534;28;20029;-75
2021/12/27 02:52:58;;;;;;;36.97;27.48;;;9.30;99.90;;;;;;5030448;28;20087;-75
2021/12/27 02:55:24;;;;;;;39.05;27.30;;;9.40;99.90;;;;;;5031634;28;20464;-75
2021/12/27 02:57:50;;;;;;;34.60;26.40;;;9.30;99.90;;;;;;5031701;28;20053;-75
2021/12/27 03:00:20;;;;;;;34.08;25.00;;;9.40;99.90;;;;;;5030963;28;20033;-75
2021/12/27 03:02:47;;;;;;;35.58;26.23;;;9.40;99.90;;;;;;5032833;28;20038;-75
2021/12/27 03:05:16;;;;;;;34.45;26.67;;;9.50;99.90;;;;;;5033509;28;20125;-75
2021/12/27 03:07:44;;;;;;;34.35;26.80;;;9.40;99.90;;;;;;5031737;28;20175;-76
2021/12/27 03:10:11;;;;;;;32.90;24.73;;;9.50;99.90;;;;;;5030018;28;20091;-75
2021/12/27 03:12:38;;;;;;;35.85;25.33;;;9.30;99.90;;;;;;5030429;28;20400;-75
2021/12/27 03:15:08;;;;;;;36.38;25.65;;;9.40;99.90;;;;;;5039515;28;20504;-75
2021/12/27 03:17:36;;;;;;;35.03;26.00;;;9.40;99.90;;;;;;5040837;28;20200;-75
2021/12/27 03:20:07;;;;;;;32.83;25.88;;;9.40;99.90;;;;;;5036337;28;20027;-75
2021/12/27 03:22:32;;;;;;;36.53;25.67;;;9.30;99.90;;;;;;5033642;28;20079;-75
2021/12/27 03:24:59;;;;;;;34.08;24.83;;;9.30;99.90;;;;;;5037405;28;20033;-75
2021/12/27 03:27:24;;;;;;;32.67;25.67;;;9.40;99.90;;;;;;5038537;28;20021;-75
2021/12/27 03:29:50;;;;;;;32.70;24.00;;;9.30;99.90;;;;;;5038684;28;20041;-76
2021/12/27 03:32:18;;;;;;;30.73;24.73;;;9.30;99.90;;;;;;5039922;28;20075;-76
2021/12/27 03:34:54;;;;;;;28.90;23.35;;;9.30;99.90;;;;;;5033125;28;20511;-76
2021/12/27 03:37:23;;;;;;;33.58;25.60;;;9.40;99.90;;;;;;5031738;28;20033;-75
2021/12/27 03:39:50;;;;;;;36.63;26.42;;;9.40;99.90;;;;;;5035234;28;20029;-75
2021/12/27 03:42:17;;;;;;;32.95;25.02;;;9.40;99.90;;;;;;5036390;28;20032;-75
2021/12/27 03:44:45;;;;;;;32.35;24.38;;;9.40;99.90;;;;;;5038071;28;20036;-75
2021/12/27 03:47:11;;;;;;;31.27;24.65;;;9.40;99.90;;;;;;5028660;28;20022;-75
2021/12/27 03:49:37;;;;;;;41.30;26.17;;;9.40;99.90;;;;;;5027949;28;20030;-75
2021/12/27 03:52:03;;;;;;;49.55;27.15;;;9.50;99.90;;;;;;5036595;28;20026;-74
2021/12/27 03:54:29;;;;;;;39.63;26.15;;;9.70;99.90;;;;;;5037774;28;20495;-74
2021/12/27 03:56:55;;;;;;;45.58;28.80;;;9.80;99.90;;;;;;5028232;28;20490;-75
2021/12/27 03:59:34;;;;;;;40.20;25.80;;;10.00;99.90;;;;;;5036152;28;20060;-75
2021/12/27 04:02:00;;;;;;;42.53;26.17;;;10.00;99.90;;;;;;5031519;28;20400;-75
2021/12/27 04:04:26;;;;;;;41.75;24.55;;;10.10;99.90;;;;;;5033393;28;20018;-75
2021/12/27 04:06:52;;;;;;;45.30;25.15;;;10.20;99.90;;;;;;5036640;28;20115;-75
2021/12/27 04:09:19;;;;;;;34.78;23.90;;;10.30;99.90;;;;;;5036932;28;20032;-76
2021/12/27 04:11:45;;;;;;;31.15;22.35;;;10.20;99.90;;;;;;5037754;28;20033;-75
2021/12/27 04:14:10;;;;;;;28.48;22.65;;;10.10;99.90;;;;;;5036050;28;20534;-75
2021/12/27 04:16:36;;;;;;;27.85;22.23;;;10.00;99.90;;;;;;5028932;28;20034;-75
2021/12/27 04:19:02;;;;;;;31.50;23.55;;;9.80;99.90;;;;;;5034051;28;20105;-75
2021/12/27 04:21:28;;;;;;;30.80;23.33;;;9.70;99.90;;;;;;5034044;28;20427;-75
2021/12/27 04:23:53;;;;;;;32.60;23.38;;;9.70;99.90;;;;;;5037470;28;20147;-75
2021/12/27 04:26:20;;;;;;;32.85;23.55;;;9.70;99.90;;;;;;5028337;28;20043;-75
2021/12/27 04:28:46;;;;;;;32.67;24.25;;;9.70;99.90;;;;;;5035264;28;20037;-75
2021/12/27 04:31:14;;;;;;;27.98;23.17;;;9.70;99.90;;;;;;5031618;28;20041;-75
2021/12/27 04:33:40;;;;;;;30.52;23.45;;;9.70;99.90;;;;;;5030168;28;20048;-76
2021/12/27 04:36:06;;;;;;;34.47;23.95;;;9.70;99.90;;;;;;5037284;28;20032;-75
2021/12/27 04:38:33;;;;;;;31.70;23.95;;;9.70;99.90;;;;;;5036705;28;20022;-75
2021/12/27 04:40:59;;;;;;;32.03;23.27;;;9.60;99.90;;;;;;5035646;28;20017;-75
2021/12/27 04:43:25;;;;;;;31.60;22.58;;;9.60;99.90;;;;;;5033078;28;20107;-75
2021/12/27 04:45:53;;;;;;;30.63;22.63;;;9.60;99.90;;;;;;5030129;28;20034;-75
2021/12/27 04:48:20;;;;;;;29.73;22.50;;;9.70;99.90;;;;;;5034184;28;20476;-75
2021/12/27 04:50:46;;;;;;;30.92;23.70;;;9.70;99.90;;;;;;5038063;28;20037;-74
2021/12/27 04:53:12;;;;;;;29.15;23.00;;;9.70;99.90;;;;;;5035788;28;20098;-75
2021/12/27 04:55:38;;;;;;;28.38;22.25;;;9.70;99.90;;;;;;5034109;28;20480;-75
2021/12/27 04:58:07;;;;;;;27.08;21.63;;;9.70;99.90;;;;;;5023526;28;20028;-75
2021/12/27 05:00:33;;;;;;;28.35;22.73;;;9.70;99.90;;;;;;5030662;28;20155;-75
2021/12/27 05:02:58;;;;;;;31.10;24.00;;;9.70;99.90;;;;;;5038569;28;20529;-75
2021/12/27 05:05:26;;;;;;;29.90;23.20;;;9.70;99.90;;;;;;5034112;28;20162;-75
2021/12/27 05:07:52;;;;;;;31.48;22.70;;;9.70;99.90;;;;;;5027547;28;20037;-75
2021/12/27 05:10:18;;;;;;;32.47;23.45;;;9.60;99.90;;;;;;5031059;28;20483;-75
2021/12/27 05:12:44;;;;;;;29.50;23.77;;;9.60;99.90;;;;;;5032139;28;20040;-75
2021/12/27 05:15:11;;;;;;;28.65;23.10;;;9.70;99.90;;;;;;5035981;28;20534;-75
2021/12/27 05:17:36;;;;;;;30.65;24.63;;;9.60;99.90;;;;;;5035014;28;20036;-75
2021/12/27 05:20:08;;;;;;;29.35;22.98;;;9.70;99.90;;;;;;5032262;28;20040;-75
2021/12/27 05:22:34;;;;;;;30.85;25.50;;;9.70;99.90;;;;;;5030719;28;20018;-75
2021/12/27 05:25:02;;;;;;;30.83;24.80;;;9.70;99.90;;;;;;5034280;28;20488;-75
2021/12/27 05:27:28;;;;;;;34.53;24.30;;;9.70;99.90;;;;;;5036488;28;20117;-75
2021/12/27 05:29:53;;;;;;;33.00;25.05;;;9.80;99.90;;;;;;5033852;28;20129;-75
2021/12/27 05:32:19;;;;;;;35.22;26.52;;;9.70;99.90;;;;;;5034685;28;20050;-75
2021/12/27 05:34:45;;;;;;;31.80;26.98;;;9.80;99.90;;;;;;5028678;28;20042;-74
2021/12/27 05:37:10;;;;;;;34.63;27.08;;;9.70;99.90;;;;;;5033279;28;20025;-75
2021/12/27 05:39:37;;;;;;;37.97;27.75;;;9.70;99.90;;;;;;5034410;28;20533;-75
2021/12/27 05:42:04;;;;;;;35.30;27.27;;;9.70;99.90;;;;;;5023508;28;20404;-74
2021/12/27 05:44:29;;;;;;;36.90;27.83;;;9.70;99.90;;;;;;5033876;28;20029;-75
2021/12/27 05:46:55;;;;;;;35.15;26.73;;;9.80;99.90;;;;;;5029440;28;20022;-74
2021/12/27 05:49:22;;;;;;;33.58;25.60;;;9.70;99.90;;;;;;5031610;28;20025;-75
2021/12/27 05:51:48;;;;;;;34.13;26.10;;;9.80;99.90;;;;;;5032631;28;20123;-75
2021/12/27 05:54:13;;;;;;;33.72;24.95;;;9.80;99.90;;;;;;5034513;28;20108;-75
2021/12/27 05:56:45;;;;;;;34.22;25.20;;;9.80;99.90;;;;;;5033755;28;20392;-74
2021/12/27 05:59:12;;;;;;;33.47;25.13;;;9.90;99.90;;;;;;5030479;28;20033;-75
2021/12/27 06:01:39;;;;;;;28.52;23.17;;;9.90;99.90;;;;;;5028554;28;20021;-75
2021/12/27 06:04:05;;;;;;;31.38;22.90;;;10.00;99.90;;;;;;5031575;28;20500;-75
2021/12/27 06:06:30;;;;;;;30.90;22.10;;;10.00;99.90;;;;;;5037219;28;20469;-75
2021/12/27 06:08:56;;;;;;;32.65;24.90;;;10.00;99.90;;;;;;5036919;28;20032;-75
2021/12/27 06:11:22;;;;;;;36.20;23.80;;;10.00;99.90;;;;;;5025194;28;20034;-75
2021/12/27 06:13:48;;;;;;;28.73;23.02;;;10.00;99.90;;;;;;5029176;28;20065;-75
2021/12/27 06:16:13;;;;;;;32.25;22.75;;;10.00;99.90;;;;;;5034984;28;20430;-75
2021/12/27 06:18:39;;;;;;;27.23;22.20;;;9.90;99.90;;;;;;5036144;28;20152;-75
2021/12/27 06:21:05;;;;;;;27.75;22.30;;;9.90;99.90;;;;;;5031281;28;20022;-76
2021/12/27 06:23:31;;;;;;;29.50;22.67;;;9.80;99.90;;;;;;5039719;28;20029;-74
2021/12/27 06:25:58;;;;;;;25.88;22.23;;;9.80;99.90;;;;;;5038979;28;20025;-75
2021/12/27 06:28:24;;;;;;;26.27;20.55;;;9.80;99.90;;;;;;5033834;28;20039;-75
2021/12/27 06:30:49;;;;;;;29.90;21.90;;;9.80;99.90;;;;;;5033189;28;20029;-76
2021/12/27 06:33:15;;;;;;;28.55;21.88;;;9.80;99.90;;;;;;5040837;28;20482;-75
2021/12/27 06:35:42;;;;;;;27.65;21.80;;;9.80;99.90;;;;;;5039228;28;20080;-75
2021/12/27 06:38:07;;;;;;;27.85;21.08;;;9.80;99.90;;;;;;5038725;28;20056;-75
2021/12/27 06:40:34;;;;;;;25.60;20.83;;;9.90;99.90;;;;;;5017842;28;20059;-75
2021/12/27 06:43:00;;;;;;;25.95;19.55;;;9.90;99.90;;;;;;5031542;28;20080;-75
2021/12/27 06:45:26;;;;;;;24.17;19.42;;;9.90;99.90;;;;;;5039177;28;20025;-75
2021/12/27 06:47:51;;;;;;;25.00;19.60;;;9.90;99.90;;;;;;5037163;28;20481;-75
2021/12/27 06:50:17;;;;;;;24.92;18.98;;;9.90;99.90;;;;;;5039312;28;20071;-74
2021/12/27 06:52:44;;;;;;;25.67;18.50;;;9.90;99.90;;;;;;5034641;28;20057;-75
2021/12/27 06:55:11;;;;;;;24.77;19.70;;;10.00;99.90;;;;;;5030940;28;20385;-74
2021/12/27 06:57:38;;;;;;;27.40;20.20;;;9.90;99.90;;;;;;5035441;28;20060;-75
2021/12/27 07:00:07;;;;;;;30.40;20.50;;;10.00;99.90;;;;;;5033287;28;20068;-75
2021/12/27 07:02:33;;;;;;;27.65;19.38;;;10.00;99.90;;;;;;5033698;28;20507;-75
2021/12/27 07:04:59;;;;;;;27.50;19.05;;;9.90;99.90;;;;;;5029488;28;20052;-75
2021/12/27 07:07:24;;;;;;;24.15;18.63;;;9.90;99.90;;;;;;5034858;28;20032;-74
2021/12/27 07:09:50;;;;;;;25.17;17.52;;;9.90;99.90;;;;;;5032275;28;20051;-75
2021/12/27 07:12:17;;;;;;;27.42;17.92;;;9.90;99.90;;;;;;5037891;28;20033;-75
2021/12/27 07:14:43;;;;;;;25.80;18.55;;;9.90;99.90;;;;;;5036809;28;20120;-74
2021/12/27 07:17:09;;;;;;;26.23;18.77;;;9.90;99.90;;;;;;5016455;28;20056;-75
2021/12/27 07:19:34;;;;;;;25.10;18.45;;;9.80;99.90;;;;;;5034783;28;20067;-75
2021/12/27 07:22:00;;;;;;;25.73;17.65;;;9.90;99.90;;;;;;5035154;28;20048;-75
2021/12/27 07:24:26;;;;;;;25.10;18.67;;;9.90;99.90;;;;;;5034536;28;20096;-75
2021/12/27 07:26:52;;;;;;;22.63;17.10;;;9.90;99.90;;;;;;5031294;28;20030;-75
2021/12/27 07:29:19;;;;;;;21.20;16.55;;;9.90;99.90;;;;;;5037701;28;20495;-75
2021/12/27 07:31:45;;;;;;;21.70;16.80;;;9.90;99.90;;;;;;5029788;28;20033;-75
2021/12/27 07:34:12;;;;;;;25.20;17.00;;;10.00;99.90;;;;;;5034221;28;20045;-75
2021/12/27 07:36:38;;;;;;;24.05;16.65;;;10.00;99.90;;;;;;5018421;28;20029;-75
2021/12/27 07:39:05;;;;;;;24.67;16.90;;;10.00;99.90;;;;;;5038033;28;20041;-75
2021/12/27 07:41:31;;;;;;;20.08;15.35;;;10.00;99.90;;;;;;5041044;28;20021;-74
2021/12/27 07:43:56;;;;;;;24.75;16.42;;;10.10;99.90;;;;;;5038293;28;20036;-74
2021/12/27 07:46:24;;;;;;;21.13;14.82;;;10.10;99.90;;;;;;5034104;28;20036;-75
2021/12/27 07:48:50;;;;;;;24.15;15.93;;;10.20;99.90;;;;;;5033752;28;20530;-75
2021/12/27 07:51:16;;;;;;;24.75;15.32;;;10.10;99.90;;;;;;5033286;28;20030;-75
2021/12/27 07:53:41;;;;;;;24.85;15.93;;;10.10;99.90;;;;;;5020321;28;20052;-75
2021/12/27 07:56:08;;;;;;;23.58;16.83;;;10.10;99.90;;;;;;5019449;28;20018;-75
2021/12/27 07:58:35;;;;;;;27.38;16.73;;;10.10;99.90;;;;;;5014002;28;20060;-75
2021/12/27 08:01:01;;;;;;;27.17;18.08;;;10.10;99.90;;;;;;5017114;28;20033;-75
2021/12/27 08:03:26;;;;;;;24.92;17.15;;;10.00;99.90;;;;;;5012876;28;20026;-75
2021/12/27 08:05:52;;;;;;;27.60;16.08;;;10.00;99.90;;;;;;5013747;28;20022;-75
2021/12/27 08:08:18;;;;;;;24.55;16.15;;;10.00;99.90;;;;;;5013973;28;20030;-75
2021/12/27 08:10:44;;;;;;;23.25;15.05;;;10.00;99.90;;;;;;5015998;28;20029;-75
2021/12/27 08:13:10;;;;;;;24.98;15.73;;;10.00;99.90;;;;;;5008972;28;20048;-75
2021/12/27 08:15:36;;;;;;;24.95;16.02;;;10.00;99.90;;;;;;5012513;28;20025;-75
2021/12/27 08:18:02;;;;;;;22.92;15.07;;;10.00;99.90;;;;;;5012380;28;20460;-75
2021/12/27 08:20:28;;;;;;;23.48;12.93;;;10.00;99.90;;;;;;5014974;28;20474;-75
2021/12/27 08:22:53;;;;;;;21.30;13.32;;;10.00;99.90;;;;;;5009695;28;20108;-75
2021/12/27 08:25:20;;;;;;;19.27;13.05;;;9.90;99.90;;;;;;5012351;28;20037;-75
2021/12/27 08:27:46;;;;;;;19.33;12.07;;;10.00;99.90;;;;;;5012321;28;20053;-75
2021/12/27 08:30:12;;;;;;;16.38;9.98;;;10.00;99.90;;;;;;5011629;28;20027;-75
2021/12/27 08:32:40;;;;;;;15.32;10.63;;;10.10;99.90;;;;;;5014355;28;20025;-75
2021/12/27 08:35:07;;;;;;;19.77;11.05;;;10.30;99.90;;;;;;5018510;28;20121;-75
2021/12/27 08:37:33;;;;;;;15.77;10.65;;;10.30;99.90;;;;;;5012010;28;20407;-75
2021/12/27 08:40:00;;;;;;;16.15;10.60;;;10.40;99.90;;;;;;5014252;28;20037;-75
2021/12/27 08:42:26;;;;;;;16.90;11.68;;;10.50;99.90;;;;;;5017319;28;20079;-75
2021/12/27 08:44:52;;;;;;;23.55;13.57;;;10.50;99.90;;;;;;5017852;28;20480;-76
2021/12/27 08:47:19;;;;;;;20.20;13.23;;;10.50;99.90;;;;;;5019955;28;20083;-75
2021/12/27 08:49:45;;;;;;;20.52;13.10;;;10.50;99.90;;;;;;5009948;28;20171;-75
2021/12/27 08:52:11;;;;;;;22.65;13.45;;;10.50;99.90;;;;;;5010002;28;20026;-75
2021/12/27 08:54:37;;;;;;;20.02;13.68;;;10.50;99.90;;;;;;5036370;28;20034;-75
2021/12/27 08:57:05;;;;;;;22.63;12.50;;;10.50;99.90;;;;;;5037387;28;20030;-76
2021/12/27 08:59:31;;;;;;;22.52;14.07;;;10.50;99.90;;;;;;5039392;28;20205;-75
2021/12/27 09:01:57;;;;;;;22.73;14.75;;;10.40;99.90;;;;;;5035507;28;20025;-75
2021/12/27 09:04:23;;;;;;;20.90;14.43;;;10.40;99.90;;;;;;5031862;28;20136;-75
2021/12/27 09:06:50;;;;;;;24.75;14.10;;;10.40;99.90;;;;;;5035286;28;20108;-75
2021/12/27 09:09:16;;;;;;;21.23;13.48;;;10.50;99.90;;;;;;5036263;28;20034;-76
2021/12/27 09:11:43;;;;;;;20.05;13.40;;;10.50;99.90;;;;;;5038810;28;20034;-75
2021/12/27 09:14:09;;;;;;;23.52;13.45;;;10.50;99.90;;;;;;5037697;28;20521;-75
2021/12/27 09:16:34;;;;;;;22.35;13.82;;;10.60;99.90;;;;;;5031342;28;20025;-75
2021/12/27 09:19:00;;;;;;;20.83;12.98;;;10.50;99.90;;;;;;5033731;28;20025;-75
2021/12/27 09:21:26;;;;;;;20.42;13.55;;;10.60;99.90;;;;;;5017282;28;20060;-75
2021/12/27 09:23:52;;;;;;;19.50;13.95;;;10.60;99.90;;;;;;5037049;28;20109;-75
2021/12/27 09:26:17;;;;;;;20.40;13.57;;;10.70;99.90;;;;;;5039363;28;20368;-75
2021/12/27 09:28:43;;;;;;;19.77;13.10;;;10.70;99.90;;;;;;5027817;28;20036;-75
2021/12/27 09:31:09;;;;;;;19.80;12.90;;;10.70;99.90;;;;;;5029606;28;20072;-75
2021/12/27 09:33:35;;;;;;;25.45;14.50;;;10.70;99.90;;;;;;5029421;28;20492;-76
2021/12/27 09:36:01;;;;;;;18.98;14.60;;;10.70;99.90;;;;;;5029216;28;20021;-76
2021/12/27 09:38:27;;;;;;;20.85;14.15;;;10.80;99.90;;;;;;5032734;28;20049;-75
2021/12/27 09:40:52;;;;;;;22.02;15.00;;;10.80;99.90;;;;;;5026503;28;20076;-75
2021/12/27 09:43:18;;;;;;;26.20;15.70;;;10.80;99.90;;;;;;5029473;28;20041;-75
2021/12/27 09:45:44;;;;;;;25.08;15.05;;;10.80;99.90;;;;;;5029152;28;20014;-76
2021/12/27 09:48:10;;;;;;;28.40;16.92;;;10.90;99.90;;;;;;5017058;28;20041;-75
2021/12/27 09:50:43;;;;;;;32.30;19.52;;;10.80;99.90;;;;;;5029945;28;20430;-76
2021/12/27 09:53:09;;;;;;;24.53;15.47;;;10.90;99.90;;;;;;5016644;28;20462;-75
2021/12/27 09:55:35;;;;;;;20.83;14.30;;;10.80;99.90;;;;;;5028821;28;20076;-75
2021/12/27 09:58:01;;;;;;;26.85;14.95;;;10.90;99.90;;;;;;5029170;28;20407;-75
2021/12/27 10:00:28;;;;;;;22.88;14.13;;;10.80;99.90;;;;;;5028200;28;20028;-75
2021/12/27 10:02:56;;;;;;;24.38;14.27;;;10.80;99.90;;;;;;5029639;28;20040;-76
2021/12/27 10:05:24;;;;;;;23.90;14.80;;;10.80;99.90;;;;;;5030677;28;20498;-76
2021/12/27 10:07:50;;;;;;;26.35;17.40;;;10.90;99.90;;;;;;5031559;28;20132;-76
2021/12/27 10:10:17;;;;;;;26.40;17.67;;;11.00;99.90;;;;;;5031724;28;20076;-75
2021/12/27 10:12:43;;;;;;;22.27;13.43;;;11.00;99.90;;;;;;5036157;28;20021;-75
2021/12/27 10:15:11;;;;;;;19.80;13.13;;;11.00;99.90;;;;;;5035463;28;20052;-75
2021/12/27 10:17:38;;;;;;;17.27;12.38;;;11.00;99.90;;;;;;5038652;28;20434;-75
2021/12/27 10:20:16;;;;;;;18.02;11.75;;;11.10;99.90;;;;;;5034017;28;20024;-75
2021/12/27 10:22:45;;;;;;;20.35;12.55;;;11.10;99.90;;;;;;5014032;28;20400;-75
2021/12/27 10:25:29;;;;;;;18.13;11.90;;;11.10;99.90;;;;;;5032307;28;20034;-76
2021/12/27 10:27:57;;;;;;;19.13;12.13;;;11.10;99.90;;;;;;5020602;28;20033;-75
2021/12/27 10:30:28;;;;;;;16.17;11.93;;;11.20;99.90;;;;;;5035936;28;20491;-75
2021/12/27 10:33:15;;;;;;;20.05;12.95;;;11.20;99.90;;;;;;5036013;28;20458;-76
2021/12/27 10:35:43;;;;;;;18.05;12.43;;;11.20;99.90;;;;;;5036900;28;20033;-75
2021/12/27 10:38:24;;;;;;;18.90;13.05;;;11.30;99.90;;;;;;5034912;28;20021;-76
2021/12/27 10:40:55;;;;;;;19.80;12.90;;;11.30;99.90;;;;;;5030653;28;20403;-75
2021/12/27 10:43:33;;;;;;;17.65;12.10;;;11.30;99.90;;;;;;5024579;28;20500;-76
2021/12/27 10:46:01;;;;;;;17.98;12.20;;;11.40;99.90;;;;;;5021193;28;20025;-75
2021/12/27 10:48:35;;;;;;;19.65;12.23;;;11.40;99.90;;;;;;5027425;28;20036;-76
2021/12/27 10:51:01;;;;;;;20.00;13.07;;;11.40;99.90;;;;;;5020592;28;20407;-75
2021/12/27 10:53:40;;;;;;;27.90;15.77;;;11.50;99.90;;;;;;5033243;28;20052;-76
2021/12/27 10:56:06;;;;;;;25.60;17.38;;;11.60;99.90;;;;;;5030485;28;20033;-76
2021/12/27 10:58:37;;;;;;;21.63;14.57;;;11.50;99.90;;;;;;5031366;28;20476;-75
2021/12/27 11:01:09;;;;;;;22.08;14.02;;;11.50;99.90;;;;;;5031496;28;20116;-75
2021/12/27 11:03:38;;;;;;;20.98;14.23;;;11.60;99.90;;;;;;5028077;28;20068;-75
2021/12/27 11:06:06;;;;;;;20.33;13.32;;;11.60;99.90;;;;;;5031707;28;20423;-76
2021/12/27 11:08:33;;;;;;;18.58;12.50;;;11.70;99.90;;;;;;5030294;28;20030;-76
2021/12/27 11:11:00;;;;;;;22.88;15.30;;;11.80;99.90;;;;;;5028488;28;20022;-76
2021/12/27 11:13:27;;;;;;;21.27;14.77;;;11.90;99.90;;;;;;5038609;28;20037;-75
2021/12/27 11:15:54;;;;;;;23.33;16.48;;;12.00;99.90;;;;;;5034093;28;20031;-75
2021/12/27 11:18:20;;;;;;;23.95;17.77;;;11.90;99.90;;;;;;5018815;28;20025;-75
2021/12/27 11:21:10;;;;;;;30.90;19.95;;;11.90;99.90;;;;;;5040107;28;20029;-76
2021/12/27 11:23:36;;;;;;;25.70;18.60;;;12.00;99.90;;;;;;4932091;29;20055;-75
2021/12/27 11:26:14;;;;;;;25.58;18.60;;;12.00;99.90;;;;;;4929868;29;20516;-75
2021/12/27 11:28:42;;;;;;;24.73;17.63;;;12.00;99.90;;;;;;4928123;29;20047;-76
2021/12/27 11:31:27;;;;;;;25.55;17.98;;;12.00;99.90;;;;;;4934327;29;20028;-75
2021/12/27 11:34:03;;;;;;;;;;;11.90;99.90;;;;;;4937244;29;20495;-76
2021/12/27 11:36:35;;;;;;;24.30;15.40;;;11.80;99.90;;;;;;4936869;29;19907;-75
2021/12/27 11:39:16;;;;;;;28.70;17.65;;;11.80;99.90;;;;;;4932940;29;20034;-76
2021/12/27 11:41:42;;;;;;;24.20;17.55;;;11.80;99.90;;;;;;4932993;29;20039;-76
2021/12/27 11:44:12;;;;;;;25.08;16.70;;;11.70;99.90;;;;;;4935949;29;20028;-75
2021/12/27 11:46:50;;;;;;;28.38;16.58;;;11.70;99.90;;;;;;4939387;29;20031;-76
2021/12/27 11:49:32;;;;;;;25.27;16.67;;;11.70;99.90;;;;;;4918315;29;20595;-76
2021/12/27 11:52:19;;;;;;;34.97;18.25;;;11.70;99.90;;;;;;4944032;29;20034;-76
2021/12/27 11:54:58;;;;;;;23.40;15.40;;;11.70;99.90;;;;;;4930116;29;20114;-76
2021/12/27 11:57:56;;;;;;;22.33;14.35;;;11.70;99.90;;;;;;4932205;29;20207;-76
2021/12/27 12:00:31;;;;;;;24.92;15.35;;;11.70;99.90;;;;;;4966695;28;20046;-76
2021/12/27 12:03:03;;;;;;;22.58;13.85;;;11.70;99.90;;;;;;5038215;28;20117;-75
2021/12/27 12:05:48;;;;;;;20.15;13.70;;;11.70;99.90;;;;;;5035843;28;20029;-76
2021/12/27 12:08:19;;;;;;;17.25;12.57;;;11.80;99.90;;;;;;5035560;28;20555;-76
2021/12/27 12:11:00;;;;;;;19.50;13.07;;;11.80;99.90;;;;;;5029180;28;20120;-76
2021/12/27 12:13:48;;;;;;;22.38;13.10;;;11.80;99.90;;;;;;5037192;28;20037;-76
2021/12/27 12:16:19;;;;;;;21.42;13.07;;;11.90;99.90;;;;;;5026472;28;20115;-76
2021/12/27 12:19:09;;;;;;;24.35;16.38;;;11.90;99.90;;;;;;5030402;28;20501;-76
2021/12/27 12:21:35;;;;;;;23.42;15.32;;;12.00;99.90;;;;;;5031509;28;20455;-76
2021/12/27 12:24:04;;;;;;;22.90;14.90;;;12.00;99.90;;;;;;5039378;28;20092;-76
2021/12/27 12:26:51;;;;;;;21.90;14.10;;;12.10;99.90;;;;;;5037492;28;20039;-76
2021/12/27 12:29:17;;;;;;;20.48;14.77;;;12.20;99.90;;;;;;5027885;28;20037;-76
2021/12/27 12:31:43;;;;;;;19.23;13.88;;;12.20;99.90;;;;;;5026987;28;20515;-76
2021/12/27 12:34:18;;;;;;;19.13;13.43;;;12.40;99.90;;;;;;5026965;28;20487;-76
2021/12/27 12:37:12;;;;;;;23.80;15.85;;;12.50;99.90;;;;;;5027018;28;20026;-76
2021/12/27 12:39:43;;;;;;;24.25;18.25;;;12.60;99.90;;;;;;5023437;28;20076;-76